createdAt,value
2023-03-25T00:02:25.337Z,8.20
2023-03-25T00:04:55.399Z,8.21
2023-03-25T00:07:25.268Z,8.21
2023-03-25T00:09:53.851Z,8.19
2023-03-25T00:12:24.559Z,8.19
2023-03-25T00:14:58.656Z,8.18
2023-03-25T00:17:29.637Z,8.16
2023-03-25T00:20:00.882Z,8.14
2023-03-25T00:22:30.959Z,8.15
2023-03-25T00:25:01.054Z,8.14
2023-03-25T00:27:31.107Z,8.13
2023-03-25T00:30:01.143Z,8.10
2023-03-25T00:32:31.377Z,8.09
2023-03-25T00:35:01.334Z,8.06
2023-03-25T00:37:31.636Z,8.04
2023-03-25T00:40:01.495Z,8.01
2023-03-25T00:42:31.475Z,7.99
2023-03-25T00:45:01.295Z,7.97
2023-03-25T00:47:31.891Z,7.94
2023-03-25T00:50:04.016Z,7.91
2023-03-25T00:52:33.980Z,7.88
2023-03-25T00:55:05.125Z,7.84
2023-03-25T00:57:34.859Z,7.81
2023-03-25T01:00:08.711Z,7.78
2023-03-25T01:02:42.179Z,7.74
2023-03-25T01:05:13.897Z,7.70
2023-03-25T01:07:50.800Z,7.67
2023-03-25T01:10:20.709Z,7.66
2023-03-25T01:12:50.581Z,7.61
2023-03-25T01:15:21.452Z,7.54
2023-03-25T01:17:51.632Z,7.47
2023-03-25T01:20:21.423Z,7.42
2023-03-25T01:22:51.238Z,7.38
2023-03-25T01:25:21.102Z,7.35
2023-03-25T01:27:50.948Z,7.33
2023-03-25T01:30:20.794Z,7.26
2023-03-25T01:32:50.650Z,7.19
2023-03-25T01:35:20.998Z,7.14
2023-03-25T01:37:50.528Z,7.09
2023-03-25T01:40:23.781Z,6.96
2023-03-25T01:42:54.952Z,6.82
2023-03-25T01:45:31.080Z,6.67
2023-03-25T01:48:07.656Z,6.58
2023-03-25T01:50:41.883Z,6.52
2023-03-25T01:53:12.702Z,6.51
2023-03-25T01:55:44.928Z,6.47
2023-03-25T01:58:18.301Z,6.43
2023-03-25T02:00:51.491Z,6.42
2023-03-25T02:03:23.347Z,6.42
2023-03-25T02:06:03.528Z,6.44
2023-03-25T02:08:40.134Z,6.41
2023-03-25T02:11:11.376Z,6.40
2023-03-25T02:13:42.469Z,6.40
2023-03-25T02:16:25.787Z,6.42
2023-03-25T02:19:37.495Z,6.42
2023-03-25T02:22:15.200Z,6.37
2023-03-25T02:25:16.458Z,6.33
2023-03-25T02:28:04.451Z,6.29
2023-03-25T02:31:11.530Z,6.30
2023-03-25T02:34:00.742Z,6.31
2023-03-25T02:36:34.936Z,6.31
2023-03-25T02:39:13.291Z,6.31
2023-03-25T02:41:47.281Z,6.33
2023-03-25T02:44:43.198Z,6.37
2023-03-25T02:47:18.856Z,6.42
2023-03-25T02:49:57.972Z,6.44
2023-03-25T02:52:30.648Z,6.45
2023-03-25T02:55:06.160Z,6.47
2023-03-25T02:57:40.181Z,6.51
2023-03-25T03:00:16.380Z,6.55
2023-03-25T03:03:01.162Z,6.58
2023-03-25T03:05:36.439Z,6.60
2023-03-25T03:08:15.028Z,6.62
2023-03-25T03:10:58.911Z,6.65
2023-03-25T03:13:58.459Z,6.66
2023-03-25T03:17:07.534Z,6.55
2023-03-25T03:19:46.764Z,6.44
2023-03-25T03:22:36.486Z,6.45
2023-03-25T03:25:39.921Z,6.44
2023-03-25T03:28:20.086Z,6.39
2023-03-25T03:31:01.617Z,6.40
2023-03-25T03:34:03.413Z,6.37
2023-03-25T03:36:42.646Z,6.37
2023-03-25T03:39:24.052Z,6.34
2023-03-25T03:42:01.245Z,6.33
2023-03-25T03:44:35.965Z,6.29
2023-03-25T03:47:16.916Z,6.21
2023-03-25T03:49:55.070Z,6.18
2023-03-25T03:52:34.981Z,6.17
2023-03-25T03:55:17.931Z,6.16
2023-03-25T03:58:02.098Z,6.13
2023-03-25T04:00:44.139Z,6.11
2023-03-25T04:03:24.980Z,6.10
2023-03-25T04:06:02.016Z,6.11
2023-03-25T04:08:43.256Z,6.13
2023-03-25T04:11:21.618Z,6.10
2023-03-25T04:13:54.483Z,6.13
2023-03-25T04:16:25.297Z,6.13
2023-03-25T04:18:55.750Z,6.10
2023-03-25T04:21:26.274Z,6.09
2023-03-25T04:23:56.088Z,6.10
2023-03-25T04:26:26.107Z,6.12
2023-03-25T04:29:00.568Z,6.13
2023-03-25T04:31:31.820Z,6.14
2023-03-25T04:34:02.988Z,6.14
2023-03-25T04:36:39.392Z,6.17
2023-03-25T04:39:12.288Z,6.18
2023-03-25T04:41:42.490Z,6.20
2023-03-25T04:44:13.016Z,6.19
2023-03-25T04:46:43.451Z,6.19
2023-03-25T04:49:21.598Z,6.18
2023-03-25T04:51:53.576Z,6.20
2023-03-25T04:54:24.152Z,6.19
2023-03-25T04:56:54.755Z,6.22
2023-03-25T04:59:25.343Z,6.24
2023-03-25T05:01:55.598Z,6.22
2023-03-25T05:04:25.391Z,6.21
2023-03-25T05:06:57.410Z,6.23
2023-03-25T05:09:27.275Z,6.23
2023-03-25T05:11:57.050Z,6.24
2023-03-25T05:14:26.728Z,6.28
2023-03-25T05:16:59.116Z,6.32
2023-03-25T05:19:29.435Z,6.37
2023-03-25T05:22:02.836Z,6.44
2023-03-25T05:24:32.619Z,6.56
2023-03-25T05:27:02.812Z,6.67
2023-03-25T05:29:34.422Z,6.84
2023-03-25T05:32:03.928Z,6.99
2023-03-25T05:34:32.789Z,7.13
2023-03-25T05:37:02.534Z,7.26
2023-03-25T05:39:32.361Z,7.39
2023-03-25T05:42:03.750Z,7.51
2023-03-25T05:44:33.655Z,7.63
2023-03-25T05:47:03.570Z,7.73
2023-03-25T05:49:33.384Z,7.84
2023-03-25T05:52:03.259Z,8.03
2023-03-25T05:54:33.076Z,8.14
2023-03-25T05:57:05.442Z,8.22
2023-03-25T05:59:39.779Z,8.31
2023-03-25T06:02:14.501Z,8.41
2023-03-25T06:04:45.203Z,8.51
2023-03-25T06:07:20.636Z,8.62
2023-03-25T06:09:54.569Z,9.04
2023-03-25T06:12:27.904Z,9.47
2023-03-25T06:14:57.664Z,9.84
2023-03-25T06:17:27.748Z,10.10
2023-03-25T06:19:56.444Z,10.33
2023-03-25T06:22:26.997Z,10.78
2023-03-25T06:24:57.213Z,11.43
2023-03-25T06:27:28.358Z,11.72
2023-03-25T06:29:58.724Z,11.91
2023-03-25T06:32:28.536Z,11.95
2023-03-25T06:34:58.287Z,12.13
2023-03-25T06:37:28.734Z,12.30
2023-03-25T06:40:05.786Z,12.37
2023-03-25T06:42:35.753Z,12.42
2023-03-25T06:45:36.149Z,12.46
2023-03-25T06:48:11.764Z,12.51
2023-03-25T06:50:43.265Z,12.56
2023-03-25T06:53:13.684Z,12.58
2023-03-25T06:55:45.248Z,12.61
2023-03-25T06:58:16.047Z,12.69
2023-03-25T07:00:47.420Z,12.76
2023-03-25T07:03:17.247Z,12.83
2023-03-25T07:05:49.587Z,12.88
2023-03-25T07:08:19.624Z,12.95
2023-03-25T07:10:49.827Z,13.02
2023-03-25T07:13:20.025Z,13.08
2023-03-25T07:15:50.254Z,13.14
2023-03-25T07:18:20.132Z,13.18
2023-03-25T07:20:50.177Z,13.24
2023-03-25T07:23:20.533Z,13.29
2023-03-25T07:25:50.847Z,13.33
2023-03-25T07:28:21.107Z,13.38
2023-03-25T07:30:51.352Z,13.43
2023-03-25T07:33:21.743Z,13.48
2023-03-25T07:35:52.070Z,13.52
2023-03-25T07:38:21.997Z,13.55
2023-03-25T07:40:52.157Z,13.58
2023-03-25T07:43:21.600Z,13.63
2023-03-25T07:46:11.726Z,13.66
2023-03-25T07:48:41.812Z,13.67
2023-03-25T07:51:11.730Z,13.74
2023-03-25T07:53:44.927Z,13.82
2023-03-25T07:56:15.313Z,13.89
2023-03-25T07:58:46.221Z,13.93
2023-03-25T08:01:16.831Z,13.97
2023-03-25T08:03:47.067Z,14.00
2023-03-25T08:06:17.243Z,14.07
2023-03-25T08:08:47.185Z,14.13
2023-03-25T08:11:17.561Z,14.21
2023-03-25T08:13:47.872Z,14.29
2023-03-25T08:16:17.915Z,14.39
2023-03-25T08:18:47.718Z,14.49
2023-03-25T08:21:19.302Z,14.58
2023-03-25T08:23:50.662Z,14.66
2023-03-25T08:26:20.704Z,14.75
2023-03-25T08:28:50.484Z,14.85
2023-03-25T08:31:20.721Z,14.93
2023-03-25T08:33:51.045Z,15.02
2023-03-25T08:36:23.612Z,15.08
2023-03-25T08:38:53.714Z,15.13
2023-03-25T08:41:24.840Z,15.19
2023-03-25T08:43:54.726Z,15.16
2023-03-25T08:46:24.892Z,15.14
2023-03-25T08:48:54.244Z,15.14
2023-03-25T08:51:24.780Z,15.10
2023-03-25T08:53:54.987Z,15.14
2023-03-25T08:56:25.053Z,15.16
2023-03-25T08:58:53.556Z,15.19
2023-03-25T09:01:27.343Z,15.22
2023-03-25T09:03:58.306Z,15.26
2023-03-25T09:06:28.431Z,15.27
2023-03-25T09:09:18.664Z,15.30
2023-03-25T09:11:48.545Z,15.34
2023-03-25T09:14:18.308Z,15.35
2023-03-25T09:16:48.352Z,15.34
2023-03-25T09:19:18.614Z,15.33
2023-03-25T09:21:48.992Z,15.28
2023-03-25T09:24:19.188Z,15.24
2023-03-25T09:26:49.658Z,15.16
2023-03-25T09:29:19.646Z,15.15
2023-03-25T09:31:49.677Z,15.10
2023-03-25T09:34:19.689Z,15.07
2023-03-25T09:36:49.791Z,15.06
2023-03-25T09:39:19.781Z,15.04
2023-03-25T09:42:23.361Z,15.05
2023-03-25T09:45:12.183Z,15.11
2023-03-25T09:47:56.159Z,15.17
2023-03-25T09:50:27.634Z,15.16
2023-03-25T09:53:03.754Z,15.17
2023-03-25T09:55:39.690Z,15.17
2023-03-25T09:58:43.605Z,15.16
2023-03-25T10:01:33.600Z,15.17
2023-03-25T10:04:31.324Z,15.18
2023-03-25T10:07:11.003Z,15.12
2023-03-25T10:10:03.344Z,15.11
2023-03-25T10:13:03.798Z,15.21
2023-03-25T10:15:45.407Z,15.27
2023-03-25T10:18:32.940Z,15.28
2023-03-25T10:21:16.575Z,15.33
2023-03-25T10:24:07.677Z,15.38
2023-03-25T10:26:56.618Z,15.39
2023-03-25T10:29:36.943Z,15.39
2023-03-25T10:32:19.576Z,15.38
2023-03-25T10:34:56.510Z,15.37
2023-03-25T10:37:35.756Z,15.41
2023-03-25T10:40:45.093Z,15.52
2023-03-25T10:43:26.789Z,15.61
2023-03-25T10:46:22.355Z,15.63
2023-03-25T10:48:52.903Z,15.61
2023-03-25T10:51:34.637Z,15.61
2023-03-25T10:54:05.106Z,15.57
2023-03-25T10:56:45.769Z,15.50
2023-03-25T10:59:36.821Z,15.48
2023-03-25T11:02:23.172Z,15.49
2023-03-25T11:05:01.984Z,15.57
2023-03-25T11:07:50.152Z,15.71
2023-03-25T11:10:26.221Z,15.94
2023-03-25T11:12:58.824Z,16.10
2023-03-25T11:15:48.108Z,16.16
2023-03-25T11:18:20.564Z,16.16
2023-03-25T11:20:58.188Z,16.15
2023-03-25T11:23:44.290Z,16.28
2023-03-25T11:26:24.067Z,16.35
2023-03-25T11:29:03.088Z,16.38
2023-03-25T11:31:37.325Z,16.44
2023-03-25T11:34:22.725Z,16.37
2023-03-25T11:37:02.205Z,16.30
2023-03-25T11:39:37.577Z,16.26
2023-03-25T11:42:16.195Z,16.28
2023-03-25T11:44:55.169Z,16.30
2023-03-25T11:47:30.333Z,16.35
2023-03-25T11:50:01.391Z,16.42
2023-03-25T11:52:56.424Z,16.44
2023-03-25T11:56:01.106Z,16.48
2023-03-25T11:58:34.413Z,16.49
2023-03-25T12:01:21.775Z,16.38
2023-03-25T12:03:53.354Z,16.22
2023-03-25T12:06:23.002Z,16.14
2023-03-25T12:08:57.857Z,16.02
2023-03-25T12:11:37.523Z,15.83
2023-03-25T12:14:23.409Z,15.59
2023-03-25T12:17:11.659Z,15.32
2023-03-25T12:19:41.720Z,15.09
2023-03-25T12:22:24.204Z,14.95
2023-03-25T12:25:04.547Z,14.84
2023-03-25T12:27:53.533Z,14.78
2023-03-25T12:30:57.995Z,14.73
2023-03-25T12:33:32.968Z,14.69
2023-03-25T12:36:10.038Z,14.71
2023-03-25T12:39:06.618Z,14.77
2023-03-25T12:42:03.837Z,14.82
2023-03-25T12:45:01.289Z,14.84
2023-03-25T12:47:49.733Z,14.83
2023-03-25T12:50:32.246Z,14.75
2023-03-25T12:53:35.581Z,14.63
2023-03-25T12:56:28.402Z,14.45
2023-03-25T12:59:33.694Z,14.32
2023-03-25T13:02:25.642Z,14.22
2023-03-25T13:05:15.053Z,14.15
2023-03-25T13:07:54.498Z,14.10
2023-03-25T13:10:32.201Z,14.06
2023-03-25T13:13:11.863Z,14.03
2023-03-25T13:15:47.090Z,14.00
2023-03-25T13:18:28.726Z,13.96
2023-03-25T13:21:19.547Z,13.93
2023-03-25T13:23:58.063Z,13.89
2023-03-25T13:26:30.789Z,13.88
2023-03-25T13:29:22.851Z,13.92
2023-03-25T13:31:54.180Z,13.93
2023-03-25T13:34:36.638Z,13.92
2023-03-25T13:37:34.284Z,13.90
2023-03-25T13:40:31.941Z,13.88
2023-03-25T13:43:25.404Z,13.85
2023-03-25T13:46:16.779Z,13.82
2023-03-25T13:49:00.351Z,13.82
2023-03-25T13:51:30.287Z,13.84
2023-03-25T13:54:32.325Z,13.85
2023-03-25T13:57:21.321Z,13.87
2023-03-25T14:00:21.728Z,13.84
2023-03-25T14:03:12.358Z,13.90
2023-03-25T14:06:24.218Z,13.96
2023-03-25T14:09:06.409Z,14.03
2023-03-25T14:11:51.923Z,14.06
2023-03-25T14:14:23.745Z,14.06
2023-03-25T14:17:00.603Z,14.02
2023-03-25T14:19:38.813Z,13.98
2023-03-25T14:22:24.824Z,13.95
2023-03-25T14:24:57.175Z,13.93
2023-03-25T14:27:35.790Z,13.93
2023-03-25T14:30:07.742Z,13.97
2023-03-25T14:32:39.805Z,14.01
2023-03-25T14:35:34.588Z,14.01
2023-03-25T14:38:08.492Z,13.98
2023-03-25T14:41:02.225Z,13.96
2023-03-25T14:43:40.274Z,13.95
2023-03-25T14:46:24.017Z,13.96
2023-03-25T14:49:06.551Z,13.99
2023-03-25T14:51:59.219Z,13.98
2023-03-25T14:54:32.733Z,13.96
2023-03-25T14:57:15.252Z,13.92
2023-03-25T14:59:52.795Z,13.90
2023-03-25T15:02:31.795Z,13.94
2023-03-25T15:05:24.582Z,14.05
2023-03-25T15:08:19.409Z,14.08
2023-03-25T15:11:15.134Z,14.14
2023-03-25T15:13:53.523Z,14.44
2023-03-25T15:16:55.779Z,14.68
2023-03-25T15:19:25.149Z,14.86
2023-03-25T15:22:04.869Z,14.98
2023-03-25T15:24:40.132Z,15.12
2023-03-25T15:27:36.883Z,15.21
2023-03-25T15:30:32.181Z,15.25
2023-03-25T15:33:11.696Z,15.25
2023-03-25T15:36:03.005Z,15.23
2023-03-25T15:38:42.209Z,15.19
2023-03-25T15:41:27.808Z,15.09
2023-03-25T15:44:25.257Z,15.03
2023-03-25T15:47:04.323Z,14.84
2023-03-25T15:50:06.092Z,14.63
2023-03-25T15:53:03.910Z,14.41
2023-03-25T15:55:41.290Z,14.25
2023-03-25T15:58:23.553Z,14.10
2023-03-25T16:01:00.934Z,14.02
2023-03-25T16:03:34.963Z,13.96
2023-03-25T16:06:07.123Z,13.92
2023-03-25T16:08:40.879Z,13.88
2023-03-25T16:11:25.422Z,13.86
2023-03-25T16:14:07.051Z,13.83
2023-03-25T16:16:41.031Z,13.77
2023-03-25T16:19:17.752Z,13.69
2023-03-25T16:21:54.941Z,13.58
2023-03-25T16:24:34.352Z,13.49
2023-03-25T16:27:20.236Z,13.38
2023-03-25T16:29:54.138Z,13.27
2023-03-25T16:32:31.984Z,13.17
2023-03-25T16:35:02.063Z,13.08
2023-03-25T16:37:34.314Z,13.01
2023-03-25T16:40:06.800Z,12.92
2023-03-25T16:42:37.647Z,12.85
2023-03-25T16:45:14.999Z,12.77
2023-03-25T16:47:46.357Z,12.68
2023-03-25T16:50:20.241Z,12.60
2023-03-25T16:52:52.107Z,12.53
2023-03-25T16:55:32.195Z,12.46
2023-03-25T16:58:02.846Z,12.40
2023-03-25T17:00:43.009Z,12.35
2023-03-25T17:03:21.560Z,12.31
2023-03-25T17:06:08.651Z,12.25
2023-03-25T17:08:37.881Z,12.21
2023-03-25T17:11:09.507Z,12.17
2023-03-25T17:13:44.864Z,12.15
2023-03-25T17:16:15.144Z,12.12
2023-03-25T17:18:48.069Z,12.11
2023-03-25T17:21:27.656Z,12.08
2023-03-25T17:24:01.177Z,12.06
2023-03-25T17:26:54.743Z,12.05
2023-03-25T17:29:24.897Z,12.02
2023-03-25T17:31:59.681Z,12.01
2023-03-25T17:34:38.033Z,12.00
2023-03-25T17:37:09.327Z,12.01
2023-03-25T17:39:39.146Z,12.01
2023-03-25T17:42:20.586Z,12.01
2023-03-25T17:44:51.244Z,12.01
2023-03-25T17:47:21.713Z,12.00
2023-03-25T17:49:53.026Z,11.99
2023-03-25T17:52:23.200Z,11.98
2023-03-25T17:54:53.243Z,11.95
2023-03-25T17:57:23.013Z,11.93
2023-03-25T17:59:56.066Z,11.89
2023-03-25T18:02:26.784Z,11.87
2023-03-25T18:04:57.565Z,11.85
2023-03-25T18:07:28.253Z,11.81
2023-03-25T18:09:57.956Z,11.83
2023-03-25T18:12:28.463Z,11.83
2023-03-25T18:14:58.785Z,11.82
2023-03-25T18:17:29.151Z,11.81
2023-03-25T18:19:59.153Z,11.82
2023-03-25T18:22:29.327Z,11.82
2023-03-25T18:24:59.390Z,11.84
2023-03-25T18:27:40.891Z,11.85
2023-03-25T18:30:20.601Z,11.86
2023-03-25T18:32:51.649Z,11.87
2023-03-25T18:35:22.137Z,11.87
2023-03-25T18:37:52.237Z,11.89
2023-03-25T18:40:29.491Z,11.90
2023-03-25T18:42:59.706Z,11.90
2023-03-25T18:45:29.593Z,11.89
2023-03-25T18:48:00.177Z,11.89
2023-03-25T18:50:38.944Z,11.88
2023-03-25T18:53:08.965Z,11.85
2023-03-25T18:55:38.772Z,11.82
2023-03-25T18:58:18.375Z,11.79
2023-03-25T19:00:53.967Z,11.75
2023-03-25T19:03:32.916Z,11.70
2023-03-25T19:06:04.704Z,11.68
2023-03-25T19:08:35.021Z,11.66
2023-03-25T19:11:19.030Z,11.60
2023-03-25T19:13:52.173Z,11.55
2023-03-25T19:16:22.431Z,11.44
2023-03-25T19:18:52.396Z,11.37
2023-03-25T19:21:22.434Z,11.32
2023-03-25T19:23:52.667Z,11.26
2023-03-25T19:26:23.119Z,11.25
2023-03-25T19:28:51.705Z,11.24
2023-03-25T19:31:21.817Z,11.22
2023-03-25T19:33:52.010Z,11.22
2023-03-25T19:36:23.463Z,11.18
2023-03-25T19:39:04.462Z,11.17
2023-03-25T19:41:35.234Z,11.15
2023-03-25T19:44:04.617Z,11.13
2023-03-25T19:46:35.401Z,11.12
2023-03-25T19:49:05.030Z,11.12
2023-03-25T19:51:34.851Z,11.11
2023-03-25T19:54:05.385Z,11.12
2023-03-25T19:56:35.273Z,11.11
2023-03-25T19:59:04.521Z,11.09
2023-03-25T20:01:35.872Z,11.08
2023-03-25T20:04:05.703Z,11.07
2023-03-25T20:06:34.874Z,11.05
2023-03-25T20:09:05.916Z,11.03
2023-03-25T20:11:35.605Z,10.96
2023-03-25T20:14:06.832Z,10.90
2023-03-25T20:16:36.593Z,10.85
2023-03-25T20:19:06.525Z,10.81
2023-03-25T20:21:35.916Z,10.79
2023-03-25T20:24:06.009Z,10.76
2023-03-25T20:26:35.653Z,10.76
2023-03-25T20:29:05.368Z,10.76
2023-03-25T20:31:35.332Z,10.76
2023-03-25T20:34:05.431Z,10.75
2023-03-25T20:36:35.250Z,10.76
2023-03-25T20:39:06.109Z,10.76
2023-03-25T20:41:36.163Z,10.76
2023-03-25T20:44:05.575Z,10.75
2023-03-25T20:46:35.382Z,10.77
2023-03-25T20:49:10.022Z,10.77
2023-03-25T20:51:42.080Z,10.79
2023-03-25T20:54:11.991Z,10.81
2023-03-25T20:56:42.593Z,10.82
2023-03-25T20:59:14.471Z,10.83
2023-03-25T21:01:45.156Z,10.82
2023-03-25T21:04:15.228Z,10.84
2023-03-25T21:06:45.315Z,10.87
2023-03-25T21:09:16.913Z,10.88
2023-03-25T21:11:49.192Z,10.90
2023-03-25T21:14:19.867Z,10.91
2023-03-25T21:16:49.762Z,10.92
2023-03-25T21:19:20.844Z,10.87
2023-03-25T21:21:50.931Z,10.82
2023-03-25T21:24:22.643Z,10.79
2023-03-25T21:26:52.367Z,10.76
2023-03-25T21:29:22.775Z,10.72
2023-03-25T21:31:52.615Z,10.69
2023-03-25T21:34:23.474Z,10.66
2023-03-25T21:36:53.290Z,10.64
2023-03-25T21:39:23.081Z,10.61
2023-03-25T21:41:53.208Z,10.60
2023-03-25T21:44:23.234Z,10.58
2023-03-25T21:46:53.507Z,10.56
2023-03-25T21:49:24.154Z,10.54
2023-03-25T21:51:57.504Z,10.53
2023-03-25T21:54:27.184Z,10.50
2023-03-25T21:56:56.946Z,10.46
2023-03-25T21:59:26.741Z,10.44
2023-03-25T22:01:56.842Z,10.40
2023-03-25T22:04:26.979Z,10.35
2023-03-25T22:06:57.222Z,10.28
2023-03-25T22:09:25.791Z,10.19
2023-03-25T22:11:56.217Z,10.10
2023-03-25T22:14:26.647Z,9.98
2023-03-25T22:16:56.745Z,9.86
2023-03-25T22:19:26.562Z,9.75
2023-03-25T22:21:56.745Z,9.62
2023-03-25T22:24:29.339Z,9.48
2023-03-25T22:27:00.140Z,9.36
2023-03-25T22:29:30.398Z,9.26
2023-03-25T22:32:07.562Z,9.20
2023-03-25T22:34:37.973Z,9.15
2023-03-25T22:37:07.796Z,9.10
2023-03-25T22:39:38.303Z,9.07
2023-03-25T22:42:08.424Z,9.05
2023-03-25T22:44:38.101Z,9.03
2023-03-25T22:47:07.867Z,9.01
2023-03-25T22:49:38.184Z,8.99
2023-03-25T22:52:08.257Z,8.97
2023-03-25T22:54:38.058Z,8.96
2023-03-25T22:57:07.971Z,8.95
2023-03-25T22:59:39.633Z,8.94
2023-03-25T23:02:12.429Z,8.94
2023-03-25T23:04:42.342Z,8.95
2023-03-25T23:07:12.773Z,8.95
2023-03-25T23:09:42.826Z,8.94
2023-03-25T23:12:23.303Z,8.94
2023-03-25T23:14:56.144Z,8.95
2023-03-25T23:17:27.143Z,8.96
2023-03-25T23:19:57.380Z,9.00
2023-03-25T23:22:28.425Z,9.02
2023-03-25T23:24:59.623Z,9.03
2023-03-25T23:27:31.081Z,9.04
2023-03-25T23:30:05.436Z,9.04
2023-03-25T23:32:35.472Z,9.04
2023-03-25T23:35:05.533Z,9.06
2023-03-25T23:37:35.615Z,9.08
2023-03-25T23:40:07.797Z,9.11
2023-03-25T23:42:37.623Z,9.15
2023-03-25T23:45:07.941Z,9.16
2023-03-25T23:47:38.100Z,9.17
2023-03-25T23:50:08.006Z,9.17
2023-03-25T23:52:38.616Z,9.14
2023-03-25T23:55:12.784Z,9.17
2023-03-25T23:57:44.102Z,9.17
